Euharlee, Georgia
Current Conditions -  °F | °C
As of 4:53 AM on Sunday 26 Oct 2014 (Local Time) from KVPC Reporting Station
Haze Haze  
Wind Chill: 50°   Ceiling: Unl
Heat Index: 50°   Visibility: 4mi
Dew Point: 47°   Wind: 0mph
Humidity: 89%   Direction: NA
Pressure: 30.01"   Gusts: NA
Location:  34.237°N, 84.9888°W
Report Text: KVPC 260853Z AUTO 00000KT 4SM BR CLR 10/08 A3001 RMK AO2 SLP153 T01000083 56007
Loading
Personal Weather Stations






























Interactive Weather Map
Tropical Storm Tracking
New forecast layout! Learn more

10-Day Weather Forecast

Advertisements
Track Severe Weather on mobile